sensor_id;sensor_type;location;lat;lon;timestamp;temperature;humidity
3053;DHT22;1536;51.098;6.414;2023-03-14T00:01:45;13.30;99.90
3053;DHT22;1536;51.098;6.414;2023-03-14T00:04:12;13.20;99.90
3053;DHT22;1536;51.098;6.414;2023-03-14T00:06:38;13.30;99.90
3053;DHT22;1536;51.098;6.414;2023-03-14T00:09:05;13.30;99.90
3053;DHT22;1536;51.098;6.414;2023-03-14T00:11:33;13.30;99.90
3053;DHT22;1536;51.098;6.414;2023-03-14T00:14:01;13.20;99.90
3053;DHT22;1536;51.098;6.414;2023-03-14T00:16:28;13.20;99.90
3053;DHT22;1536;51.098;6.414;2023-03-14T00:18:55;13.20;99.90
3053;DHT22;1536;51.098;6.414;2023-03-14T00:21:21;13.10;99.90
3053;DHT22;1536;51.098;6.414;2023-03-14T00:23:48;13.00;99.90
3053;DHT22;1536;51.098;6.414;2023-03-14T00:26:16;12.80;99.90
3053;DHT22;1536;51.098;6.414;2023-03-14T00:28:44;12.70;99.90
3053;DHT22;1536;51.098;6.414;2023-03-14T00:31:14;12.60;99.90
3053;DHT22;1536;51.098;6.414;2023-03-14T00:33:42;12.50;99.90
3053;DHT22;1536;51.098;6.414;2023-03-14T00:36:10;12.40;99.90
3053;DHT22;1536;51.098;6.414;2023-03-14T00:38:39;12.30;99.90
3053;DHT22;1536;51.098;6.414;2023-03-14T00:41:08;12.20;99.90
3053;DHT22;1536;51.098;6.414;2023-03-14T00:43:35;12.10;99.90
3053;DHT22;1536;51.098;6.414;2023-03-14T00:46:02;12.10;99.90
3053;DHT22;1536;51.098;6.414;2023-03-14T00:48:31;12.00;99.90
3053;DHT22;1536;51.098;6.414;2023-03-14T00:50:58;11.90;99.90
3053;DHT22;1536;51.098;6.414;2023-03-14T00:53:24;11.90;99.90
3053;DHT22;1536;51.098;6.414;2023-03-14T00:55:51;11.80;99.90
3053;DHT22;1536;51.098;6.414;2023-03-14T00:58:18;11.70;99.90
3053;DHT22;1536;51.098;6.414;2023-03-14T01:00:45;11.70;99.90
3053;DHT22;1536;51.098;6.414;2023-03-14T01:03:14;11.70;99.90
3053;DHT22;1536;51.098;6.414;2023-03-14T01:05:42;11.70;99.90
3053;DHT22;1536;51.098;6.414;2023-03-14T01:08:09;11.70;99.90
3053;DHT22;1536;51.098;6.414;2023-03-14T01:10:38;11.60;99.90
3053;DHT22;1536;51.098;6.414;2023-03-14T01:13:05;11.60;99.90
3053;DHT22;1536;51.098;6.414;2023-03-14T01:15:32;11.70;99.90
3053;DHT22;1536;51.098;6.414;2023-03-14T01:17:59;11.70;99.90
3053;DHT22;1536;51.098;6.414;2023-03-14T01:20:26;11.60;99.90
3053;DHT22;1536;51.098;6.414;2023-03-14T01:22:54;11.70;99.90
3053;DHT22;1536;51.098;6.414;2023-03-14T01:25:21;11.70;99.90
3053;DHT22;1536;51.098;6.414;2023-03-14T01:27:48;11.70;99.90
3053;DHT22;1536;51.098;6.414;2023-03-14T01:30:15;11.70;99.90
3053;DHT22;1536;51.098;6.414;2023-03-14T01:32:42;11.70;99.90
3053;DHT22;1536;51.098;6.414;2023-03-14T01:35:08;11.70;99.90
3053;DHT22;1536;51.098;6.414;2023-03-14T01:37:35;11.70;99.90
3053;DHT22;1536;51.098;6.414;2023-03-14T01:40:04;11.70;99.90
3053;DHT22;1536;51.098;6.414;2023-03-14T01:42:32;11.70;99.90
3053;DHT22;1536;51.098;6.414;2023-03-14T01:45:00;11.70;99.90
3053;DHT22;1536;51.098;6.414;2023-03-14T01:47:27;11.70;99.90
3053;DHT22;1536;51.098;6.414;2023-03-14T01:49:57;11.70;99.90
3053;DHT22;1536;51.098;6.414;2023-03-14T01:52:29;11.70;99.90
3053;DHT22;1536;51.098;6.414;2023-03-14T01:55:03;11.70;99.90
3053;DHT22;1536;51.098;6.414;2023-03-14T01:57:33;11.70;99.90
3053;DHT22;1536;51.098;6.414;2023-03-14T02:00:05;11.70;99.90
3053;DHT22;1536;51.098;6.414;2023-03-14T02:02:37;11.70;99.90
3053;DHT22;1536;51.098;6.414;2023-03-14T02:05:05;11.60;99.90
3053;DHT22;1536;51.098;6.414;2023-03-14T02:07:36;11.60;99.90
3053;DHT22;1536;51.098;6.414;2023-03-14T02:10:06;11.60;99.90
3053;DHT22;1536;51.098;6.414;2023-03-14T02:12:34;11.60;99.90
3053;DHT22;1536;51.098;6.414;2023-03-14T02:15:01;11.60;99.90
3053;DHT22;1536;51.098;6.414;2023-03-14T02:17:28;11.60;99.90
3053;DHT22;1536;51.098;6.414;2023-03-14T02:20:13;11.60;99.90
3053;DHT22;1536;51.098;6.414;2023-03-14T02:22:44;11.70;99.90
3053;DHT22;1536;51.098;6.414;2023-03-14T02:25:15;11.70;99.90
3053;DHT22;1536;51.098;6.414;2023-03-14T02:27:46;11.70;99.90
3053;DHT22;1536;51.098;6.414;2023-03-14T02:30:15;11.70;99.90
3053;DHT22;1536;51.098;6.414;2023-03-14T02:32:47;11.70;99.90
3053;DHT22;1536;51.098;6.414;2023-03-14T02:35:17;11.70;99.90
3053;DHT22;1536;51.098;6.414;2023-03-14T02:37:49;11.80;99.90
3053;DHT22;1536;51.098;6.414;2023-03-14T02:40:17;11.80;99.90
3053;DHT22;1536;51.098;6.414;2023-03-14T02:42:45;11.80;99.90
3053;DHT22;1536;51.098;6.414;2023-03-14T02:45:40;11.80;99.90
3053;DHT22;1536;51.098;6.414;2023-03-14T02:48:11;11.80;99.90
3053;DHT22;1536;51.098;6.414;2023-03-14T02:50:39;11.80;99.90
3053;DHT22;1536;51.098;6.414;2023-03-14T02:53:06;11.90;99.90
3053;DHT22;1536;51.098;6.414;2023-03-14T02:55:32;11.90;99.90
3053;DHT22;1536;51.098;6.414;2023-03-14T02:58:00;11.90;99.90
3053;DHT22;1536;51.098;6.414;2023-03-14T03:00:27;11.90;99.90
3053;DHT22;1536;51.098;6.414;2023-03-14T03:02:56;11.80;99.90
3053;DHT22;1536;51.098;6.414;2023-03-14T03:05:22;11.90;99.90
3053;DHT22;1536;51.098;6.414;2023-03-14T03:07:49;11.90;99.90
3053;DHT22;1536;51.098;6.414;2023-03-14T03:10:16;11.90;99.90
3053;DHT22;1536;51.098;6.414;2023-03-14T03:12:43;11.90;99.90
3053;DHT22;1536;51.098;6.414;2023-03-14T03:15:11;11.90;99.90
3053;DHT22;1536;51.098;6.414;2023-03-14T03:17:38;11.90;99.90
3053;DHT22;1536;51.098;6.414;2023-03-14T03:20:06;11.90;99.90
3053;DHT22;1536;51.098;6.414;2023-03-14T03:22:35;11.80;99.90
3053;DHT22;1536;51.098;6.414;2023-03-14T03:25:01;11.80;99.90
3053;DHT22;1536;51.098;6.414;2023-03-14T03:27:30;11.70;99.90
3053;DHT22;1536;51.098;6.414;2023-03-14T03:29:57;11.70;99.90
3053;DHT22;1536;51.098;6.414;2023-03-14T03:32:25;11.60;99.90
3053;DHT22;1536;51.098;6.414;2023-03-14T03:34:52;11.50;99.90
3053;DHT22;1536;51.098;6.414;2023-03-14T03:37:19;11.50;99.90
3053;DHT22;1536;51.098;6.414;2023-03-14T03:39:46;11.50;99.90
3053;DHT22;1536;51.098;6.414;2023-03-14T03:42:13;11.50;99.90
3053;DHT22;1536;51.098;6.414;2023-03-14T03:44:39;11.50;99.90
3053;DHT22;1536;51.098;6.414;2023-03-14T03:47:06;11.50;99.90
3053;DHT22;1536;51.098;6.414;2023-03-14T03:49:34;11.50;99.90
3053;DHT22;1536;51.098;6.414;2023-03-14T03:52:01;11.50;99.90
3053;DHT22;1536;51.098;6.414;2023-03-14T03:54:27;11.50;99.90
3053;DHT22;1536;51.098;6.414;2023-03-14T03:56:55;11.50;99.90
3053;DHT22;1536;51.098;6.414;2023-03-14T03:59:22;11.50;99.90
3053;DHT22;1536;51.098;6.414;2023-03-14T04:01:48;11.60;99.90
3053;DHT22;1536;51.098;6.414;2023-03-14T04:06:58;11.60;99.90
3053;DHT22;1536;51.098;6.414;2023-03-14T04:09:25;11.60;99.90
3053;DHT22;1536;51.098;6.414;2023-03-14T04:11:51;11.60;99.90
3053;DHT22;1536;51.098;6.414;2023-03-14T04:14:18;11.60;99.90
3053;DHT22;1536;51.098;6.414;2023-03-14T04:16:45;11.60;99.90
3053;DHT22;1536;51.098;6.414;2023-03-14T04:19:11;11.60;99.90
3053;DHT22;1536;51.098;6.414;2023-03-14T04:21:38;11.60;99.90
3053;DHT22;1536;51.098;6.414;2023-03-14T04:24:11;11.60;99.90
3053;DHT22;1536;51.098;6.414;2023-03-14T04:26:38;11.60;99.90
3053;DHT22;1536;51.098;6.414;2023-03-14T04:29:05;11.60;99.90
3053;DHT22;1536;51.098;6.414;2023-03-14T04:31:31;11.60;99.90
3053;DHT22;1536;51.098;6.414;2023-03-14T04:33:58;11.60;99.90
3053;DHT22;1536;51.098;6.414;2023-03-14T04:36:25;11.60;99.90
3053;DHT22;1536;51.098;6.414;2023-03-14T04:38:51;11.60;99.90
3053;DHT22;1536;51.098;6.414;2023-03-14T04:41:19;11.50;99.90
3053;DHT22;1536;51.098;6.414;2023-03-14T04:43:46;11.50;99.90
3053;DHT22;1536;51.098;6.414;2023-03-14T04:46:13;11.50;99.90
3053;DHT22;1536;51.098;6.414;2023-03-14T04:48:40;11.50;99.90
3053;DHT22;1536;51.098;6.414;2023-03-14T04:51:07;11.50;99.90
3053;DHT22;1536;51.098;6.414;2023-03-14T04:53:34;11.50;99.90
3053;DHT22;1536;51.098;6.414;2023-03-14T04:56:02;11.50;99.90
3053;DHT22;1536;51.098;6.414;2023-03-14T04:58:31;11.50;99.90
3053;DHT22;1536;51.098;6.414;2023-03-14T05:01:02;11.50;99.90
3053;DHT22;1536;51.098;6.414;2023-03-14T05:03:28;11.50;99.90
3053;DHT22;1536;51.098;6.414;2023-03-14T05:05:55;11.50;99.90
3053;DHT22;1536;51.098;6.414;2023-03-14T05:08:22;11.50;99.90
3053;DHT22;1536;51.098;6.414;2023-03-14T05:10:52;11.50;99.90
3053;DHT22;1536;51.098;6.414;2023-03-14T05:13:19;11.50;99.90
3053;DHT22;1536;51.098;6.414;2023-03-14T05:15:47;11.50;99.90
3053;DHT22;1536;51.098;6.414;2023-03-14T05:18:14;11.50;99.90
3053;DHT22;1536;51.098;6.414;2023-03-14T05:20:40;11.50;99.90
3053;DHT22;1536;51.098;6.414;2023-03-14T05:23:08;11.50;99.90
3053;DHT22;1536;51.098;6.414;2023-03-14T05:25:35;11.50;99.90
3053;DHT22;1536;51.098;6.414;2023-03-14T05:28:02;11.50;99.90
3053;DHT22;1536;51.098;6.414;2023-03-14T05:30:29;11.50;99.90
3053;DHT22;1536;51.098;6.414;2023-03-14T05:32:57;11.50;99.90
3053;DHT22;1536;51.098;6.414;2023-03-14T05:35:24;11.50;99.90
3053;DHT22;1536;51.098;6.414;2023-03-14T05:37:50;11.40;99.90
3053;DHT22;1536;51.098;6.414;2023-03-14T05:40:17;11.40;99.90
3053;DHT22;1536;51.098;6.414;2023-03-14T05:42:44;11.40;99.90
3053;DHT22;1536;51.098;6.414;2023-03-14T05:45:11;11.40;99.90
3053;DHT22;1536;51.098;6.414;2023-03-14T05:47:38;11.40;99.90
3053;DHT22;1536;51.098;6.414;2023-03-14T05:50:06;11.40;99.90
3053;DHT22;1536;51.098;6.414;2023-03-14T05:52:33;11.40;99.90
3053;DHT22;1536;51.098;6.414;2023-03-14T05:55:00;11.40;99.90
3053;DHT22;1536;51.098;6.414;2023-03-14T05:57:27;11.40;99.90
3053;DHT22;1536;51.098;6.414;2023-03-14T05:59:53;11.40;99.90
3053;DHT22;1536;51.098;6.414;2023-03-14T06:02:20;11.40;99.90
3053;DHT22;1536;51.098;6.414;2023-03-14T06:04:47;11.40;99.90
3053;DHT22;1536;51.098;6.414;2023-03-14T06:07:15;11.40;99.90
3053;DHT22;1536;51.098;6.414;2023-03-14T06:09:42;11.40;99.90
3053;DHT22;1536;51.098;6.414;2023-03-14T06:12:08;11.40;99.90
3053;DHT22;1536;51.098;6.414;2023-03-14T06:14:35;11.40;99.90
3053;DHT22;1536;51.098;6.414;2023-03-14T06:17:02;11.40;99.90
3053;DHT22;1536;51.098;6.414;2023-03-14T06:19:29;11.40;99.90
3053;DHT22;1536;51.098;6.414;2023-03-14T06:21:56;11.40;99.90
3053;DHT22;1536;51.098;6.414;2023-03-14T06:24:24;11.40;99.90
3053;DHT22;1536;51.098;6.414;2023-03-14T06:26:50;11.40;99.90
3053;DHT22;1536;51.098;6.414;2023-03-14T06:29:17;11.40;99.90
3053;DHT22;1536;51.098;6.414;2023-03-14T06:31:44;11.40;99.90
3053;DHT22;1536;51.098;6.414;2023-03-14T06:34:10;11.50;99.90
3053;DHT22;1536;51.098;6.414;2023-03-14T06:36:38;11.50;99.90
3053;DHT22;1536;51.098;6.414;2023-03-14T06:39:04;11.50;99.90
3053;DHT22;1536;51.098;6.414;2023-03-14T06:41:32;11.50;99.90
3053;DHT22;1536;51.098;6.414;2023-03-14T06:43:59;11.50;99.90
3053;DHT22;1536;51.098;6.414;2023-03-14T06:46:26;11.50;99.90
3053;DHT22;1536;51.098;6.414;2023-03-14T06:48:53;11.50;99.90
3053;DHT22;1536;51.098;6.414;2023-03-14T06:51:20;11.60;99.90
3053;DHT22;1536;51.098;6.414;2023-03-14T06:53:46;11.60;99.90
3053;DHT22;1536;51.098;6.414;2023-03-14T06:56:13;11.60;99.90
3053;DHT22;1536;51.098;6.414;2023-03-14T06:58:41;11.60;99.90
3053;DHT22;1536;51.098;6.414;2023-03-14T07:01:17;11.70;99.90
3053;DHT22;1536;51.098;6.414;2023-03-14T07:03:46;11.70;99.90
3053;DHT22;1536;51.098;6.414;2023-03-14T07:06:13;11.70;99.90
3053;DHT22;1536;51.098;6.414;2023-03-14T07:08:39;11.70;99.90
3053;DHT22;1536;51.098;6.414;2023-03-14T07:11:07;11.70;99.90
3053;DHT22;1536;51.098;6.414;2023-03-14T07:13:35;11.70;99.90
3053;DHT22;1536;51.098;6.414;2023-03-14T07:16:04;11.80;99.90
3053;DHT22;1536;51.098;6.414;2023-03-14T07:18:31;11.80;99.90
3053;DHT22;1536;51.098;6.414;2023-03-14T07:20:58;11.90;99.90
3053;DHT22;1536;51.098;6.414;2023-03-14T07:23:24;11.90;99.90
3053;DHT22;1536;51.098;6.414;2023-03-14T07:25:51;11.80;99.90
3053;DHT22;1536;51.098;6.414;2023-03-14T07:28:19;11.80;99.90
3053;DHT22;1536;51.098;6.414;2023-03-14T07:30:46;11.90;99.90
3053;DHT22;1536;51.098;6.414;2023-03-14T07:33:14;11.90;99.90
3053;DHT22;1536;51.098;6.414;2023-03-14T07:35:41;11.90;99.90
3053;DHT22;1536;51.098;6.414;2023-03-14T07:38:08;11.90;99.90
3053;DHT22;1536;51.098;6.414;2023-03-14T07:40:35;11.90;99.90
3053;DHT22;1536;51.098;6.414;2023-03-14T07:43:01;11.90;99.90
3053;DHT22;1536;51.098;6.414;2023-03-14T07:45:28;11.90;99.90
3053;DHT22;1536;51.098;6.414;2023-03-14T07:47:55;12.00;99.90
3053;DHT22;1536;51.098;6.414;2023-03-14T07:50:24;12.00;99.90
3053;DHT22;1536;51.098;6.414;2023-03-14T07:52:50;12.10;99.90
3053;DHT22;1536;51.098;6.414;2023-03-14T07:55:17;12.20;99.90
3053;DHT22;1536;51.098;6.414;2023-03-14T07:57:44;12.20;99.90
3053;DHT22;1536;51.098;6.414;2023-03-14T08:00:12;12.30;99.90
3053;DHT22;1536;51.098;6.414;2023-03-14T08:02:39;12.30;99.90
3053;DHT22;1536;51.098;6.414;2023-03-14T08:05:07;12.30;99.90
3053;DHT22;1536;51.098;6.414;2023-03-14T08:07:36;12.30;99.90
3053;DHT22;1536;51.098;6.414;2023-03-14T08:10:03;12.40;99.90
3053;DHT22;1536;51.098;6.414;2023-03-14T08:12:30;12.30;99.90
3053;DHT22;1536;51.098;6.414;2023-03-14T08:14:57;12.30;99.90
3053;DHT22;1536;51.098;6.414;2023-03-14T08:17:25;12.40;99.90
3053;DHT22;1536;51.098;6.414;2023-03-14T08:19:51;12.40;99.90
3053;DHT22;1536;51.098;6.414;2023-03-14T08:22:18;12.40;99.90
3053;DHT22;1536;51.098;6.414;2023-03-14T08:24:46;12.40;99.90
3053;DHT22;1536;51.098;6.414;2023-03-14T08:27:13;12.40;99.90
3053;DHT22;1536;51.098;6.414;2023-03-14T08:29:40;12.40;99.90
3053;DHT22;1536;51.098;6.414;2023-03-14T08:32:08;12.30;99.90
3053;DHT22;1536;51.098;6.414;2023-03-14T08:34:34;12.30;99.90
3053;DHT22;1536;51.098;6.414;2023-03-14T08:37:01;12.30;99.90
3053;DHT22;1536;51.098;6.414;2023-03-14T08:39:28;12.20;99.90
3053;DHT22;1536;51.098;6.414;2023-03-14T08:41:56;12.20;99.90
3053;DHT22;1536;51.098;6.414;2023-03-14T08:44:23;12.10;99.90
3053;DHT22;1536;51.098;6.414;2023-03-14T08:46:50;12.10;99.90
3053;DHT22;1536;51.098;6.414;2023-03-14T08:49:16;12.20;99.90
3053;DHT22;1536;51.098;6.414;2023-03-14T08:51:43;12.20;99.90
3053;DHT22;1536;51.098;6.414;2023-03-14T08:54:11;12.20;99.90
3053;DHT22;1536;51.098;6.414;2023-03-14T08:56:38;12.20;99.90
3053;DHT22;1536;51.098;6.414;2023-03-14T08:59:06;12.10;99.90
3053;DHT22;1536;51.098;6.414;2023-03-14T09:01:33;12.00;99.90
3053;DHT22;1536;51.098;6.414;2023-03-14T09:04:00;11.90;99.90
3053;DHT22;1536;51.098;6.414;2023-03-14T09:06:27;11.80;99.90
3053;DHT22;1536;51.098;6.414;2023-03-14T09:08:54;11.70;99.90
3053;DHT22;1536;51.098;6.414;2023-03-14T09:11:20;11.60;99.90
3053;DHT22;1536;51.098;6.414;2023-03-14T09:13:47;11.40;99.90
3053;DHT22;1536;51.098;6.414;2023-03-14T09:16:16;11.20;99.90
3053;DHT22;1536;51.098;6.414;2023-03-14T09:18:42;11.10;99.90
3053;DHT22;1536;51.098;6.414;2023-03-14T09:21:09;11.00;99.90
3053;DHT22;1536;51.098;6.414;2023-03-14T09:23:36;10.90;99.90
3053;DHT22;1536;51.098;6.414;2023-03-14T09:26:03;10.80;99.90
3053;DHT22;1536;51.098;6.414;2023-03-14T09:28:29;10.70;99.90
3053;DHT22;1536;51.098;6.414;2023-03-14T09:30:56;10.60;99.90
3053;DHT22;1536;51.098;6.414;2023-03-14T09:33:24;10.60;99.90
3053;DHT22;1536;51.098;6.414;2023-03-14T09:35:51;10.60;99.90
3053;DHT22;1536;51.098;6.414;2023-03-14T09:38:18;10.60;99.90
3053;DHT22;1536;51.098;6.414;2023-03-14T09:40:46;10.60;99.90
3053;DHT22;1536;51.098;6.414;2023-03-14T09:43:14;10.70;99.90
3053;DHT22;1536;51.098;6.414;2023-03-14T09:45:43;10.60;99.90
3053;DHT22;1536;51.098;6.414;2023-03-14T09:48:15;10.60;99.90
3053;DHT22;1536;51.098;6.414;2023-03-14T09:50:46;10.50;99.90
3053;DHT22;1536;51.098;6.414;2023-03-14T09:53:18;10.50;99.90
3053;DHT22;1536;51.098;6.414;2023-03-14T09:55:47;10.50;99.90
3053;DHT22;1536;51.098;6.414;2023-03-14T09:58:18;10.40;99.90
3053;DHT22;1536;51.098;6.414;2023-03-14T10:00:45;10.30;99.90
3053;DHT22;1536;51.098;6.414;2023-03-14T10:03:25;10.20;99.90
3053;DHT22;1536;51.098;6.414;2023-03-14T10:06:11;10.20;99.90
3053;DHT22;1536;51.098;6.414;2023-03-14T10:08:39;10.10;99.90
3053;DHT22;1536;51.098;6.414;2023-03-14T10:11:09;10.10;99.90
3053;DHT22;1536;51.098;6.414;2023-03-14T10:13:47;10.10;99.90
3053;DHT22;1536;51.098;6.414;2023-03-14T10:16:14;10.10;99.90
3053;DHT22;1536;51.098;6.414;2023-03-14T10:18:44;10.10;99.90
3053;DHT22;1536;51.098;6.414;2023-03-14T10:21:24;10.10;99.90
3053;DHT22;1536;51.098;6.414;2023-03-14T10:23:52;10.10;99.90
3053;DHT22;1536;51.098;6.414;2023-03-14T10:26:23;10.10;99.90
3053;DHT22;1536;51.098;6.414;2023-03-14T10:28:52;10.10;99.90
3053;DHT22;1536;51.098;6.414;2023-03-14T10:31:24;10.20;99.90
3053;DHT22;1536;51.098;6.414;2023-03-14T10:33:59;10.20;99.90
3053;DHT22;1536;51.098;6.414;2023-03-14T10:36:28;10.20;99.90
3053;DHT22;1536;51.098;6.414;2023-03-14T10:38:57;10.20;99.90
3053;DHT22;1536;51.098;6.414;2023-03-14T10:41:32;10.20;99.90
3053;DHT22;1536;51.098;6.414;2023-03-14T10:44:01;10.20;99.90
3053;DHT22;1536;51.098;6.414;2023-03-14T10:46:31;10.20;99.90
3053;DHT22;1536;51.098;6.414;2023-03-14T10:48:58;10.30;99.90
3053;DHT22;1536;51.098;6.414;2023-03-14T10:51:32;10.30;99.90
3053;DHT22;1536;51.098;6.414;2023-03-14T10:54:00;10.30;99.90
3053;DHT22;1536;51.098;6.414;2023-03-14T10:56:34;10.40;99.90
3053;DHT22;1536;51.098;6.414;2023-03-14T10:59:03;10.50;99.90
3053;DHT22;1536;51.098;6.414;2023-03-14T11:01:39;10.50;99.90
3053;DHT22;1536;51.098;6.414;2023-03-14T11:04:15;10.60;99.90
3053;DHT22;1536;51.098;6.414;2023-03-14T11:06:51;10.60;99.90
3053;DHT22;1536;51.098;6.414;2023-03-14T11:09:25;10.60;99.90
3053;DHT22;1536;51.098;6.414;2023-03-14T11:12:01;10.50;99.90
3053;DHT22;1536;51.098;6.414;2023-03-14T11:14:33;10.30;99.90
3053;DHT22;1536;51.098;6.414;2023-03-14T11:17:05;10.10;99.90
3053;DHT22;1536;51.098;6.414;2023-03-14T11:19:45;10.00;99.90
3053;DHT22;1536;51.098;6.414;2023-03-14T11:22:21;9.80;99.90
3053;DHT22;1536;51.098;6.414;2023-03-14T11:27:42;9.70;99.90
3053;DHT22;1536;51.098;6.414;2023-03-14T11:30:19;9.60;99.90
3053;DHT22;1536;51.098;6.414;2023-03-14T11:32:52;9.60;99.90
3053;DHT22;1536;51.098;6.414;2023-03-14T11:35:25;9.50;99.90
3053;DHT22;1536;51.098;6.414;2023-03-14T11:37:56;9.50;99.90
3053;DHT22;1536;51.098;6.414;2023-03-14T11:40:27;9.50;99.90
3053;DHT22;1536;51.098;6.414;2023-03-14T11:42:59;9.50;99.90
3053;DHT22;1536;51.098;6.414;2023-03-14T11:45:30;9.50;99.90
3053;DHT22;1536;51.098;6.414;2023-03-14T11:48:24;9.50;99.90
3053;DHT22;1536;51.098;6.414;2023-03-14T11:50:53;9.50;99.90
3053;DHT22;1536;51.098;6.414;2023-03-14T11:53:35;9.50;99.90
3053;DHT22;1536;51.098;6.414;2023-03-14T11:56:03;9.60;99.90
3053;DHT22;1536;51.098;6.414;2023-03-14T11:58:33;9.60;99.90
3053;DHT22;1536;51.098;6.414;2023-03-14T12:01:06;9.50;99.90
3053;DHT22;1536;51.098;6.414;2023-03-14T12:03:41;9.50;99.90
3053;DHT22;1536;51.098;6.414;2023-03-14T12:06:13;9.50;99.90
3053;DHT22;1536;51.098;6.414;2023-03-14T12:08:46;9.40;99.90
3053;DHT22;1536;51.098;6.414;2023-03-14T12:11:19;9.40;99.90
3053;DHT22;1536;51.098;6.414;2023-03-14T12:13:49;9.30;99.90
3053;DHT22;1536;51.098;6.414;2023-03-14T12:16:32;9.30;99.90
3053;DHT22;1536;51.098;6.414;2023-03-14T12:21:58;9.20;99.90
3053;DHT22;1536;51.098;6.414;2023-03-14T12:24:30;9.20;99.90
3053;DHT22;1536;51.098;6.414;2023-03-14T12:26:59;9.20;99.90
3053;DHT22;1536;51.098;6.414;2023-03-14T12:29:28;9.20;99.90
3053;DHT22;1536;51.098;6.414;2023-03-14T12:32:21;9.20;99.90
3053;DHT22;1536;51.098;6.414;2023-03-14T12:34:49;9.20;99.90
3053;DHT22;1536;51.098;6.414;2023-03-14T12:37:22;9.30;99.90
3053;DHT22;1536;51.098;6.414;2023-03-14T12:40:12;9.40;99.90
3053;DHT22;1536;51.098;6.414;2023-03-14T12:42:50;9.40;99.90
3053;DHT22;1536;51.098;6.414;2023-03-14T12:45:23;9.40;99.90
3053;DHT22;1536;51.098;6.414;2023-03-14T12:47:57;9.40;99.90
3053;DHT22;1536;51.098;6.414;2023-03-14T12:50:33;9.40;99.90
3053;DHT22;1536;51.098;6.414;2023-03-14T12:56:16;9.40;99.90
3053;DHT22;1536;51.098;6.414;2023-03-14T12:58:54;9.50;99.90
3053;DHT22;1536;51.098;6.414;2023-03-14T13:01:26;9.60;99.90
3053;DHT22;1536;51.098;6.414;2023-03-14T13:03:55;9.60;99.90
3053;DHT22;1536;51.098;6.414;2023-03-14T13:06:46;9.70;99.90
3053;DHT22;1536;51.098;6.414;2023-03-14T13:09:45;9.60;99.90
3053;DHT22;1536;51.098;6.414;2023-03-14T13:12:18;9.60;99.90
3053;DHT22;1536;51.098;6.414;2023-03-14T13:14:50;9.40;99.90
3053;DHT22;1536;51.098;6.414;2023-03-14T13:17:24;9.10;99.90
3053;DHT22;1536;51.098;6.414;2023-03-14T13:19:55;9.00;99.90
3053;DHT22;1536;51.098;6.414;2023-03-14T13:22:25;8.90;99.90
3053;DHT22;1536;51.098;6.414;2023-03-14T13:25:00;8.80;99.90
3053;DHT22;1536;51.098;6.414;2023-03-14T13:27:30;8.70;99.90
3053;DHT22;1536;51.098;6.414;2023-03-14T13:29:58;8.70;99.90
3053;DHT22;1536;51.098;6.414;2023-03-14T13:32:27;8.60;99.90
3053;DHT22;1536;51.098;6.414;2023-03-14T13:34:56;8.70;99.90
3053;DHT22;1536;51.098;6.414;2023-03-14T13:37:24;8.60;99.90
3053;DHT22;1536;51.098;6.414;2023-03-14T13:39:52;8.60;99.90
3053;DHT22;1536;51.098;6.414;2023-03-14T13:42:21;8.60;99.90
3053;DHT22;1536;51.098;6.414;2023-03-14T13:44:53;8.60;99.90
3053;DHT22;1536;51.098;6.414;2023-03-14T13:47:22;8.70;99.90
3053;DHT22;1536;51.098;6.414;2023-03-14T13:49:50;8.70;99.90
3053;DHT22;1536;51.098;6.414;2023-03-14T13:52:23;8.60;99.90
3053;DHT22;1536;51.098;6.414;2023-03-14T13:54:53;8.60;99.90
3053;DHT22;1536;51.098;6.414;2023-03-14T13:57:20;8.60;99.90
3053;DHT22;1536;51.098;6.414;2023-03-14T14:00:00;8.50;99.90
3053;DHT22;1536;51.098;6.414;2023-03-14T14:02:32;8.60;99.90
3053;DHT22;1536;51.098;6.414;2023-03-14T14:04:59;8.60;99.90
3053;DHT22;1536;51.098;6.414;2023-03-14T14:07:26;8.60;99.90
3053;DHT22;1536;51.098;6.414;2023-03-14T14:09:54;8.70;99.90
3053;DHT22;1536;51.098;6.414;2023-03-14T14:12:23;8.80;99.90
3053;DHT22;1536;51.098;6.414;2023-03-14T14:14:56;8.90;99.90
3053;DHT22;1536;51.098;6.414;2023-03-14T14:17:27;9.00;99.90
3053;DHT22;1536;51.098;6.414;2023-03-14T14:19:57;9.00;99.90
3053;DHT22;1536;51.098;6.414;2023-03-14T14:22:25;9.10;99.90
3053;DHT22;1536;51.098;6.414;2023-03-14T14:24:52;9.20;99.90
3053;DHT22;1536;51.098;6.414;2023-03-14T14:27:24;9.20;99.90
3053;DHT22;1536;51.098;6.414;2023-03-14T14:30:00;9.30;99.90
3053;DHT22;1536;51.098;6.414;2023-03-14T14:32:36;9.40;99.90
3053;DHT22;1536;51.098;6.414;2023-03-14T14:35:04;9.50;99.90
3053;DHT22;1536;51.098;6.414;2023-03-14T14:37:33;9.50;99.90
3053;DHT22;1536;51.098;6.414;2023-03-14T14:40:06;9.60;99.90
3053;DHT22;1536;51.098;6.414;2023-03-14T14:42:33;9.60;99.90
3053;DHT22;1536;51.098;6.414;2023-03-14T14:45:02;9.70;99.90
3053;DHT22;1536;51.098;6.414;2023-03-14T14:47:29;9.70;99.90
3053;DHT22;1536;51.098;6.414;2023-03-14T14:50:03;9.70;99.90
3053;DHT22;1536;51.098;6.414;2023-03-14T14:52:37;9.70;99.90
3053;DHT22;1536;51.098;6.414;2023-03-14T14:55:17;9.70;99.90
3053;DHT22;1536;51.098;6.414;2023-03-14T14:57:49;9.70;99.90
3053;DHT22;1536;51.098;6.414;2023-03-14T15:00:20;9.70;99.90
3053;DHT22;1536;51.098;6.414;2023-03-14T15:02:49;9.70;99.90
3053;DHT22;1536;51.098;6.414;2023-03-14T15:05:19;9.70;99.90
3053;DHT22;1536;51.098;6.414;2023-03-14T15:07:47;9.60;99.90
3053;DHT22;1536;51.098;6.414;2023-03-14T15:10:16;9.60;99.90
3053;DHT22;1536;51.098;6.414;2023-03-14T15:12:43;9.60;99.90
3053;DHT22;1536;51.098;6.414;2023-03-14T15:15:11;9.60;99.90
3053;DHT22;1536;51.098;6.414;2023-03-14T15:17:38;9.60;99.90
3053;DHT22;1536;51.098;6.414;2023-03-14T15:20:09;9.60;99.90
3053;DHT22;1536;51.098;6.414;2023-03-14T15:22:39;9.60;99.90
3053;DHT22;1536;51.098;6.414;2023-03-14T15:25:07;9.60;99.90
3053;DHT22;1536;51.098;6.414;2023-03-14T15:27:35;9.60;99.90
3053;DHT22;1536;51.098;6.414;2023-03-14T15:30:10;9.60;99.90
3053;DHT22;1536;51.098;6.414;2023-03-14T15:32:37;9.60;99.90
3053;DHT22;1536;51.098;6.414;2023-03-14T15:35:04;9.60;99.90
3053;DHT22;1536;51.098;6.414;2023-03-14T15:37:31;9.60;99.90
3053;DHT22;1536;51.098;6.414;2023-03-14T15:39:59;9.60;99.90
3053;DHT22;1536;51.098;6.414;2023-03-14T15:42:28;9.50;99.90
3053;DHT22;1536;51.098;6.414;2023-03-14T15:44:55;9.60;99.90
3053;DHT22;1536;51.098;6.414;2023-03-14T15:47:21;9.50;99.90
3053;DHT22;1536;51.098;6.414;2023-03-14T15:49:48;9.50;99.90
3053;DHT22;1536;51.098;6.414;2023-03-14T15:52:15;9.40;99.90
3053;DHT22;1536;51.098;6.414;2023-03-14T15:54:41;9.40;99.90
3053;DHT22;1536;51.098;6.414;2023-03-14T15:57:11;9.40;99.90
3053;DHT22;1536;51.098;6.414;2023-03-14T16:02:20;9.40;99.90
3053;DHT22;1536;51.098;6.414;2023-03-14T16:04:46;9.30;99.90
3053;DHT22;1536;51.098;6.414;2023-03-14T16:07:13;9.20;99.90
3053;DHT22;1536;51.098;6.414;2023-03-14T16:09:40;9.20;99.90
3053;DHT22;1536;51.098;6.414;2023-03-14T16:12:07;9.20;99.90
3053;DHT22;1536;51.098;6.414;2023-03-14T16:14:35;9.20;99.90
3053;DHT22;1536;51.098;6.414;2023-03-14T16:17:07;9.10;99.90
3053;DHT22;1536;51.098;6.414;2023-03-14T16:19:36;9.10;99.90
3053;DHT22;1536;51.098;6.414;2023-03-14T16:22:02;9.10;99.90
3053;DHT22;1536;51.098;6.414;2023-03-14T16:24:29;9.10;99.90
3053;DHT22;1536;51.098;6.414;2023-03-14T16:26:56;9.10;99.90
3053;DHT22;1536;51.098;6.414;2023-03-14T16:29:23;9.00;99.90
3053;DHT22;1536;51.098;6.414;2023-03-14T16:31:51;9.00;99.90
3053;DHT22;1536;51.098;6.414;2023-03-14T16:34:18;9.00;99.90